sensor_id;sensor_type;location;lat;lon;timestamp;pressure;altitude;pressure_sealevel;temperature;humidity
26915;BME280;14480;52.608;13.416;2022-10-04T06:59:39;111587.56;;;-144.42;100.00
26915;BME280;14480;52.608;13.416;2022-10-04T07:04:55;111587.56;;;-144.42;100.00
26915;BME280;14480;52.608;13.416;2022-10-04T07:10:28;111587.56;;;-144.42;100.00
26915;BME280;14480;52.608;13.416;2022-10-04T07:15:43;111587.56;;;-144.42;100.00
26915;BME280;14480;52.608;13.416;2022-10-04T07:20:57;111587.56;;;-144.42;100.00
26915;BME280;14480;52.608;13.416;2022-10-04T07:26:05;111587.56;;;-144.42;100.00
26915;BME280;14480;52.608;13.416;2022-10-04T07:31:13;111587.56;;;-144.42;100.00
26915;BME280;14480;52.608;13.416;2022-10-04T07:36:26;111587.56;;;-144.42;100.00
26915;BME280;14480;52.608;13.416;2022-10-04T07:41:36;111587.56;;;-144.42;100.00
26915;BME280;14480;52.608;13.416;2022-10-04T07:46:49;111587.56;;;-144.42;100.00
26915;BME280;14480;52.608;13.416;2022-10-04T07:52:07;111587.56;;;-144.42;100.00
26915;BME280;14480;52.608;13.416;2022-10-04T07:57:21;111587.56;;;-144.42;100.00
26915;BME280;14480;52.608;13.416;2022-10-04T08:02:41;111587.56;;;-144.42;100.00
26915;BME280;14480;52.608;13.416;2022-10-04T08:08:20;111587.56;;;-144.42;100.00
26915;BME280;14480;52.608;13.416;2022-10-04T08:13:51;111587.56;;;-144.42;100.00
26915;BME280;14480;52.608;13.416;2022-10-04T08:24:29;111587.56;;;-144.42;100.00
26915;BME280;14480;52.608;13.416;2022-10-04T08:29:51;111587.56;;;-144.42;100.00
26915;BME280;14480;52.608;13.416;2022-10-04T08:35:18;111587.56;;;-144.42;100.00
26915;BME280;14480;52.608;13.416;2022-10-04T08:40:50;111587.56;;;-144.42;100.00
26915;BME280;14480;52.608;13.416;2022-10-04T08:46:39;111587.56;;;-144.42;100.00
26915;BME280;14480;52.608;13.416;2022-10-04T08:57:54;111587.56;;;-144.42;100.00
26915;BME280;14480;52.608;13.416;2022-10-04T09:09:19;111587.56;;;-144.42;100.00
26915;BME280;14480;52.608;13.416;2022-10-04T09:20:20;111587.56;;;-144.42;100.00
26915;BME280;14480;52.608;13.416;2022-10-04T09:25:55;111587.56;;;-144.42;100.00
26915;BME280;14480;52.608;13.416;2022-10-04T09:31:32;111587.56;;;-144.42;100.00
26915;BME280;14480;52.608;13.416;2022-10-04T09:37:13;111587.56;;;-144.42;100.00
26915;BME280;14480;52.608;13.416;2022-10-04T09:42:41;111587.56;;;-144.42;100.00
26915;BME280;14480;52.608;13.416;2022-10-04T09:48:00;111587.56;;;-144.42;100.00
26915;BME280;14480;52.608;13.416;2022-10-04T09:53:33;111587.56;;;-144.42;100.00
26915;BME280;14480;52.608;13.416;2022-10-04T09:59:00;111587.56;;;-144.42;100.00
26915;BME280;14480;52.608;13.416;2022-10-04T10:04:25;111587.56;;;-144.42;100.00
26915;BME280;14480;52.608;13.416;2022-10-04T10:09:38;111587.56;;;-144.42;100.00
26915;BME280;14480;52.608;13.416;2022-10-04T10:15:14;111587.56;;;-144.42;100.00
26915;BME280;14480;52.608;13.416;2022-10-04T10:26:34;111587.56;;;-144.42;100.00
26915;BME280;14480;52.608;13.416;2022-10-04T10:32:07;111587.56;;;-144.42;100.00
26915;BME280;14480;52.608;13.416;2022-10-04T10:37:21;111587.56;;;-144.42;100.00
26915;BME280;14480;52.608;13.416;2022-10-04T10:42:46;111587.56;;;-144.42;100.00
26915;BME280;14480;52.608;13.416;2022-10-04T10:48:04;111587.56;;;-144.42;100.00
26915;BME280;14480;52.608;13.416;2022-10-04T10:53:22;111587.56;;;-144.42;100.00
26915;BME280;14480;52.608;13.416;2022-10-04T10:59:05;111587.56;;;-144.42;100.00
26915;BME280;14480;52.608;13.416;2022-10-04T11:04:34;111587.56;;;-144.42;100.00
26915;BME280;14480;52.608;13.416;2022-10-04T11:10:02;111587.56;;;-144.42;100.00
26915;BME280;14480;52.608;13.416;2022-10-04T11:21:17;111587.56;;;-144.42;100.00
26915;BME280;14480;52.608;13.416;2022-10-04T11:38:05;111587.56;;;-144.42;100.00
26915;BME280;14480;52.608;13.416;2022-10-04T11:43:26;111587.56;;;-144.42;100.00
26915;BME280;14480;52.608;13.416;2022-10-04T11:48:47;111587.56;;;-144.42;100.00
26915;BME280;14480;52.608;13.416;2022-10-04T11:59:43;111587.56;;;-144.42;100.00
26915;BME280;14480;52.608;13.416;2022-10-04T12:05:16;111587.56;;;-144.42;100.00
26915;BME280;14480;52.608;13.416;2022-10-04T12:10:26;111587.56;;;-144.42;100.00
26915;BME280;14480;52.608;13.416;2022-10-04T12:15:39;111587.56;;;-144.42;100.00
26915;BME280;14480;52.608;13.416;2022-10-04T12:21:06;111587.56;;;-144.42;100.00
26915;BME280;14480;52.608;13.416;2022-10-04T12:32:05;111587.56;;;-144.42;100.00
26915;BME280;14480;52.608;13.416;2022-10-04T12:37:23;111587.56;;;-144.42;100.00
26915;BME280;14480;52.608;13.416;2022-10-04T12:42:37;111587.56;;;-144.42;100.00
26915;BME280;14480;52.608;13.416;2022-10-04T12:48:04;111587.56;;;-144.42;100.00
26915;BME280;14480;52.608;13.416;2022-10-04T12:53:23;111587.56;;;-144.42;100.00
26915;BME280;14480;52.608;13.416;2022-10-04T12:58:44;111587.56;;;-144.42;100.00
26915;BME280;14480;52.608;13.416;2022-10-04T13:04:35;111587.56;;;-144.42;100.00
26915;BME280;14480;52.608;13.416;2022-10-04T13:09:47;111587.56;;;-144.42;100.00
26915;BME280;14480;52.608;13.416;2022-10-04T13:15:23;111587.56;;;-144.42;100.00
26915;BME280;14480;52.608;13.416;2022-10-04T13:21:25;111587.56;;;-144.42;100.00
26915;BME280;14480;52.608;13.416;2022-10-04T13:26:42;111587.56;;;-144.42;100.00
26915;BME280;14480;52.608;13.416;2022-10-04T13:31:56;111587.56;;;-144.42;98.96
26915;BME280;14480;52.608;13.416;2022-10-04T13:37:23;111587.56;;;-144.42;98.75
26915;BME280;14480;52.608;13.416;2022-10-04T13:42:47;111587.56;;;-144.42;97.93
26915;BME280;14480;52.608;13.416;2022-10-04T13:48:09;111587.56;;;-144.42;98.71
26915;BME280;14480;52.608;13.416;2022-10-04T13:53:33;111587.56;;;-144.42;98.44
26915;BME280;14480;52.608;13.416;2022-10-04T13:59:04;111587.56;;;-144.42;98.46
26915;BME280;14480;52.608;13.416;2022-10-04T14:04:23;111587.56;;;-144.42;97.32
26915;BME280;14480;52.608;13.416;2022-10-04T14:09:45;111587.56;;;-144.42;97.16
26915;BME280;14480;52.608;13.416;2022-10-04T14:15:32;111587.56;;;-144.42;95.91
26915;BME280;14480;52.608;13.416;2022-10-04T14:43:33;111587.56;;;-144.42;98.26
26915;BME280;14480;52.608;13.416;2022-10-04T14:48:59;111587.56;;;-144.42;98.47
26915;BME280;14480;52.608;13.416;2022-10-04T14:54:11;111587.56;;;-144.42;98.77
26915;BME280;14480;52.608;13.416;2022-10-04T15:05:18;111587.56;;;-144.42;100.00
26915;BME280;14480;52.608;13.416;2022-10-04T15:10:30;111587.56;;;-144.42;100.00
26915;BME280;14480;52.608;13.416;2022-10-04T15:15:56;111587.56;;;-144.42;100.00
26915;BME280;14480;52.608;13.416;2022-10-04T15:21:07;111587.56;;;-144.42;100.00
26915;BME280;14480;52.608;13.416;2022-10-04T15:32:02;111587.56;;;-144.42;100.00
26915;BME280;14480;52.608;13.416;2022-10-04T15:37:33;111587.56;;;-144.42;100.00
26915;BME280;14480;52.608;13.416;2022-10-04T15:42:55;111587.56;;;-144.42;100.00
26915;BME280;14480;52.608;13.416;2022-10-04T15:48:19;111587.56;;;-144.42;100.00
26915;BME280;14480;52.608;13.416;2022-10-04T15:59:33;111587.56;;;-144.42;100.00
26915;BME280;14480;52.608;13.416;2022-10-04T16:04:44;111587.56;;;-144.42;100.00
26915;BME280;14480;52.608;13.416;2022-10-04T16:09:57;111587.56;;;-144.42;100.00
26915;BME280;14480;52.608;13.416;2022-10-04T16:15:16;111587.56;;;-144.42;100.00
26915;BME280;14480;52.608;13.416;2022-10-04T16:20:51;111587.56;;;-144.42;100.00
26915;BME280;14480;52.608;13.416;2022-10-04T16:26:00;111587.56;;;-144.42;100.00
26915;BME280;14480;52.608;13.416;2022-10-04T16:31:20;111587.56;;;-144.42;100.00
26915;BME280;14480;52.608;13.416;2022-10-04T16:36:40;111587.56;;;-144.42;100.00
26915;BME280;14480;52.608;13.416;2022-10-04T16:41:56;111587.56;;;-144.42;100.00
26915;BME280;14480;52.608;13.416;2022-10-04T16:47:18;111587.56;;;-144.42;100.00
26915;BME280;14480;52.608;13.416;2022-10-04T16:52:43;111587.56;;;-144.42;100.00
26915;BME280;14480;52.608;13.416;2022-10-04T17:03:57;111587.56;;;-144.42;100.00
26915;BME280;14480;52.608;13.416;2022-10-04T17:09:16;111587.56;;;-144.42;100.00
26915;BME280;14480;52.608;13.416;2022-10-04T17:14:42;111587.56;;;-144.42;100.00
26915;BME280;14480;52.608;13.416;2022-10-04T17:19:53;111587.56;;;-144.42;100.00
26915;BME280;14480;52.608;13.416;2022-10-04T17:25:12;111587.56;;;-144.42;100.00
26915;BME280;14480;52.608;13.416;2022-10-04T17:30:21;111587.56;;;-144.42;100.00
26915;BME280;14480;52.608;13.416;2022-10-04T17:36:00;111587.56;;;-144.42;100.00
26915;BME280;14480;52.608;13.416;2022-10-04T17:41:16;111587.56;;;-144.42;100.00
26915;BME280;14480;52.608;13.416;2022-10-04T17:46:22;111587.56;;;-144.42;100.00
26915;BME280;14480;52.608;13.416;2022-10-04T17:51:39;111587.56;;;-144.42;100.00
26915;BME280;14480;52.608;13.416;2022-10-04T17:57:36;111587.56;;;-144.42;100.00
26915;BME280;14480;52.608;13.416;2022-10-04T18:02:58;111587.56;;;-144.42;100.00
26915;BME280;14480;52.608;13.416;2022-10-04T18:08:11;111587.56;;;-144.42;100.00
26915;BME280;14480;52.608;13.416;2022-10-04T18:13:36;111587.56;;;-144.42;100.00
26915;BME280;14480;52.608;13.416;2022-10-04T18:18:43;111587.56;;;-144.42;100.00
26915;BME280;14480;52.608;13.416;2022-10-04T18:23:59;111587.56;;;-144.42;100.00
26915;BME280;14480;52.608;13.416;2022-10-04T18:29:11;111587.56;;;-144.42;100.00
26915;BME280;14480;52.608;13.416;2022-10-04T18:34:26;111587.56;;;-144.42;100.00
26915;BME280;14480;52.608;13.416;2022-10-04T18:39:42;111587.56;;;-144.42;100.00
26915;BME280;14480;52.608;13.416;2022-10-04T18:44:58;111587.56;;;-144.42;100.00
26915;BME280;14480;52.608;13.416;2022-10-04T18:50:14;111587.56;;;-144.42;100.00
26915;BME280;14480;52.608;13.416;2022-10-04T18:55:29;111587.56;;;-144.42;100.00
26915;BME280;14480;52.608;13.416;2022-10-04T19:00:49;111587.56;;;-144.42;100.00
26915;BME280;14480;52.608;13.416;2022-10-04T19:06:18;111587.56;;;-144.42;100.00
26915;BME280;14480;52.608;13.416;2022-10-04T19:11:32;111587.56;;;-144.42;100.00
26915;BME280;14480;52.608;13.416;2022-10-04T19:16:43;111587.56;;;-144.42;100.00
26915;BME280;14480;52.608;13.416;2022-10-04T19:21:56;111587.56;;;-144.42;100.00
26915;BME280;14480;52.608;13.416;2022-10-04T19:27:04;111587.56;;;-144.42;100.00
26915;BME280;14480;52.608;13.416;2022-10-04T19:32:13;111587.56;;;-144.42;100.00
26915;BME280;14480;52.608;13.416;2022-10-04T19:37:26;111587.56;;;-144.42;100.00
26915;BME280;14480;52.608;13.416;2022-10-04T19:42:37;111587.56;;;-144.42;100.00
26915;BME280;14480;52.608;13.416;2022-10-04T19:47:48;111587.56;;;-144.42;100.00
26915;BME280;14480;52.608;13.416;2022-10-04T19:52:54;111587.56;;;-144.42;100.00
26915;BME280;14480;52.608;13.416;2022-10-04T19:58:07;111587.56;;;-144.42;100.00
26915;BME280;14480;52.608;13.416;2022-10-04T20:03:19;111587.56;;;-144.42;100.00
26915;BME280;14480;52.608;13.416;2022-10-04T20:08:49;111587.56;;;-144.42;100.00
26915;BME280;14480;52.608;13.416;2022-10-04T20:14:42;111587.56;;;-144.42;100.00
26915;BME280;14480;52.608;13.416;2022-10-04T20:19:50;111587.56;;;-144.42;100.00
26915;BME280;14480;52.608;13.416;2022-10-04T20:24:53;111587.56;;;-144.42;100.00
26915;BME280;14480;52.608;13.416;2022-10-04T20:30:00;111587.56;;;-144.42;100.00
26915;BME280;14480;52.608;13.416;2022-10-04T20:35:09;111587.56;;;-144.42;100.00
26915;BME280;14480;52.608;13.416;2022-10-04T20:40:42;111587.56;;;-144.42;100.00
26915;BME280;14480;52.608;13.416;2022-10-04T20:45:47;111587.56;;;-144.42;100.00
26915;BME280;14480;52.608;13.416;2022-10-04T20:51:05;111587.56;;;-144.42;100.00
26915;BME280;14480;52.608;13.416;2022-10-04T20:56:19;111587.56;;;-144.42;100.00
26915;BME280;14480;52.608;13.416;2022-10-04T21:01:29;111587.56;;;-144.42;100.00
26915;BME280;14480;52.608;13.416;2022-10-04T21:06:58;111587.56;;;-144.42;100.00
26915;BME280;14480;52.608;13.416;2022-10-04T21:12:36;111587.56;;;-144.42;100.00
26915;BME280;14480;52.608;13.416;2022-10-04T21:18:01;111587.56;;;-144.42;100.00
26915;BME280;14480;52.608;13.416;2022-10-04T21:23:15;111587.56;;;-144.42;100.00
26915;BME280;14480;52.608;13.416;2022-10-04T21:28:29;111587.56;;;-144.42;100.00
26915;BME280;14480;52.608;13.416;2022-10-04T21:33:36;111587.56;;;-144.42;100.00
